sensor_id;sensor_type;location;lat;lon;timestamp;pressure;altitude;pressure_sealevel;temperature;humidity
37904;BME280;23738;50.422;18.758;2023-02-24T00:00:12;97873.71;;;7.90;76.30
37904;BME280;23738;50.422;18.758;2023-02-24T00:02:59;97872.55;;;7.85;76.02
37904;BME280;23738;50.422;18.758;2023-02-24T00:05:34;97870.65;;;7.80;76.17
37904;BME280;23738;50.422;18.758;2023-02-24T00:08:01;97863.95;;;7.73;76.09
37904;BME280;23738;50.422;18.758;2023-02-24T00:10:28;97863.09;;;7.70;75.88
37904;BME280;23738;50.422;18.758;2023-02-24T00:12:55;97857.27;;;7.71;76.13
37904;BME280;23738;50.422;18.758;2023-02-24T00:15:23;97853.46;;;7.70;76.34
37904;BME280;23738;50.422;18.758;2023-02-24T00:17:50;97846.55;;;7.69;76.11
37904;BME280;23738;50.422;18.758;2023-02-24T00:20:18;97846.09;;;7.69;76.24
37904;BME280;23738;50.422;18.758;2023-02-24T00:22:45;97842.24;;;7.67;76.25
37904;BME280;23738;50.422;18.758;2023-02-24T00:25:12;97835.77;;;7.63;76.14
37904;BME280;23738;50.422;18.758;2023-02-24T00:27:40;97835.14;;;7.58;76.08
37904;BME280;23738;50.422;18.758;2023-02-24T00:30:10;97833.81;;;7.58;75.97
37904;BME280;23738;50.422;18.758;2023-02-24T00:32:38;97832.92;;;7.58;76.17
37904;BME280;23738;50.422;18.758;2023-02-24T00:35:07;97828.23;;;7.55;76.16
37904;BME280;23738;50.422;18.758;2023-02-24T00:37:35;97827.70;;;7.54;76.28
37904;BME280;23738;50.422;18.758;2023-02-24T00:40:03;97827.46;;;7.50;76.41
37904;BME280;23738;50.422;18.758;2023-02-24T00:42:37;97825.08;;;7.46;76.32
37904;BME280;23738;50.422;18.758;2023-02-24T00:45:08;97818.39;;;7.35;76.27
37904;BME280;23738;50.422;18.758;2023-02-24T00:47:37;97821.71;;;7.35;76.32
37904;BME280;23738;50.422;18.758;2023-02-24T00:50:07;97813.05;;;7.32;76.41
37904;BME280;23738;50.422;18.758;2023-02-24T00:52:35;97813.34;;;7.34;76.12
37904;BME280;23738;50.422;18.758;2023-02-24T00:55:03;97806.11;;;7.34;76.48
37904;BME280;23738;50.422;18.758;2023-02-24T00:57:40;97799.96;;;7.36;76.51
37904;BME280;23738;50.422;18.758;2023-02-24T01:00:10;97799.11;;;7.34;76.38
37904;BME280;23738;50.422;18.758;2023-02-24T01:02:42;97799.52;;;7.31;76.42
37904;BME280;23738;50.422;18.758;2023-02-24T01:05:11;97794.80;;;7.26;76.59
37904;BME280;23738;50.422;18.758;2023-02-24T01:07:38;97799.65;;;7.25;76.54
37904;BME280;23738;50.422;18.758;2023-02-24T01:10:09;97795.32;;;7.26;76.71
37904;BME280;23738;50.422;18.758;2023-02-24T01:12:38;97789.84;;;7.26;76.54
37904;BME280;23738;50.422;18.758;2023-02-24T01:15:16;97786.15;;;7.24;76.67
37904;BME280;23738;50.422;18.758;2023-02-24T01:17:45;97785.48;;;7.26;76.45
37904;BME280;23738;50.422;18.758;2023-02-24T01:20:14;97783.20;;;7.24;76.77
37904;BME280;23738;50.422;18.758;2023-02-24T01:22:43;97781.02;;;7.23;76.87
37904;BME280;23738;50.422;18.758;2023-02-24T01:25:11;97780.41;;;7.24;76.94
37904;BME280;23738;50.422;18.758;2023-02-24T01:27:38;97779.08;;;7.27;76.86
37904;BME280;23738;50.422;18.758;2023-02-24T01:30:09;97769.02;;;7.27;76.82
37904;BME280;23738;50.422;18.758;2023-02-24T01:32:41;97769.85;;;7.32;76.58
37904;BME280;23738;50.422;18.758;2023-02-24T01:35:10;97771.78;;;7.31;76.62
37904;BME280;23738;50.422;18.758;2023-02-24T01:37:38;97771.77;;;7.30;77.09
37904;BME280;23738;50.422;18.758;2023-02-24T01:40:11;97767.80;;;7.28;76.78
37904;BME280;23738;50.422;18.758;2023-02-24T01:42:44;97766.88;;;7.30;76.79
37904;BME280;23738;50.422;18.758;2023-02-24T01:45:24;97760.18;;;7.30;76.85
37904;BME280;23738;50.422;18.758;2023-02-24T01:47:57;97759.95;;;7.35;77.09
37904;BME280;23738;50.422;18.758;2023-02-24T01:50:26;97756.48;;;7.37;76.98
37904;BME280;23738;50.422;18.758;2023-02-24T01:52:57;97754.05;;;7.36;76.99
37904;BME280;23738;50.422;18.758;2023-02-24T01:55:28;97755.59;;;7.33;76.97
37904;BME280;23738;50.422;18.758;2023-02-24T01:58:00;97752.02;;;7.31;76.95
37904;BME280;23738;50.422;18.758;2023-02-24T02:00:30;97751.52;;;7.29;77.17
37904;BME280;23738;50.422;18.758;2023-02-24T02:03:08;97745.13;;;7.29;77.21
37904;BME280;23738;50.422;18.758;2023-02-24T02:05:39;97743.64;;;7.29;77.14
37904;BME280;23738;50.422;18.758;2023-02-24T02:08:07;97741.52;;;7.32;77.03
37904;BME280;23738;50.422;18.758;2023-02-24T02:10:36;97736.86;;;7.36;77.10
37904;BME280;23738;50.422;18.758;2023-02-24T02:13:06;97732.55;;;7.38;77.12
37904;BME280;23738;50.422;18.758;2023-02-24T02:15:39;97730.05;;;7.38;77.15
37904;BME280;23738;50.422;18.758;2023-02-24T02:18:16;97728.94;;;7.36;77.25
37904;BME280;23738;50.422;18.758;2023-02-24T02:24:05;97729.46;;;7.30;77.25
37904;BME280;23738;50.422;18.758;2023-02-24T02:30:12;97725.80;;;7.34;77.16
37904;BME280;23738;50.422;18.758;2023-02-24T02:33:15;97720.73;;;7.32;77.35
37904;BME280;23738;50.422;18.758;2023-02-24T02:35:56;97712.39;;;7.33;77.19
37904;BME280;23738;50.422;18.758;2023-02-24T02:38:29;97708.86;;;7.32;77.31
37904;BME280;23738;50.422;18.758;2023-02-24T02:41:05;97707.48;;;7.30;77.27
37904;BME280;23738;50.422;18.758;2023-02-24T02:43:38;97705.96;;;7.28;77.07
37904;BME280;23738;50.422;18.758;2023-02-24T02:46:11;97704.20;;;7.24;77.46
37904;BME280;23738;50.422;18.758;2023-02-24T02:48:47;97700.67;;;7.24;77.30
37904;BME280;23738;50.422;18.758;2023-02-24T02:51:17;97700.39;;;7.26;77.33
37904;BME280;23738;50.422;18.758;2023-02-24T02:53:49;97695.00;;;7.27;77.30
37904;BME280;23738;50.422;18.758;2023-02-24T02:56:23;97696.19;;;7.25;77.43
37904;BME280;23738;50.422;18.758;2023-02-24T02:58:56;97691.58;;;7.24;77.31
37904;BME280;23738;50.422;18.758;2023-02-24T03:01:28;97693.63;;;7.22;77.54
37904;BME280;23738;50.422;18.758;2023-02-24T03:04:02;97694.30;;;7.19;77.43
37904;BME280;23738;50.422;18.758;2023-02-24T03:06:32;97689.94;;;7.17;77.46
37904;BME280;23738;50.422;18.758;2023-02-24T03:09:03;97687.88;;;7.15;77.24
37904;BME280;23738;50.422;18.758;2023-02-24T03:11:37;97684.08;;;7.19;77.48
37904;BME280;23738;50.422;18.758;2023-02-24T03:14:06;97685.10;;;7.22;77.62
37904;BME280;23738;50.422;18.758;2023-02-24T03:16:38;97684.90;;;7.23;77.47
37904;BME280;23738;50.422;18.758;2023-02-24T03:19:09;97678.35;;;7.22;77.37
37904;BME280;23738;50.422;18.758;2023-02-24T03:21:39;97676.48;;;7.22;77.49
37904;BME280;23738;50.422;18.758;2023-02-24T03:24:11;97674.10;;;7.19;77.54
37904;BME280;23738;50.422;18.758;2023-02-24T03:26:45;97673.54;;;7.17;77.73
37904;BME280;23738;50.422;18.758;2023-02-24T03:29:16;97675.30;;;7.15;77.55
37904;BME280;23738;50.422;18.758;2023-02-24T03:31:51;97676.52;;;7.15;77.73
37904;BME280;23738;50.422;18.758;2023-02-24T03:34:29;97677.94;;;7.17;77.58
37904;BME280;23738;50.422;18.758;2023-02-24T03:37:03;97674.00;;;7.19;77.72
37904;BME280;23738;50.422;18.758;2023-02-24T03:39:31;97670.89;;;7.18;77.70
37904;BME280;23738;50.422;18.758;2023-02-24T03:42:02;97667.95;;;7.20;77.94
37904;BME280;23738;50.422;18.758;2023-02-24T03:44:31;97663.50;;;7.19;77.88
37904;BME280;23738;50.422;18.758;2023-02-24T03:47:00;97662.77;;;7.18;77.84
37904;BME280;23738;50.422;18.758;2023-02-24T03:49:28;97658.50;;;7.16;78.22
37904;BME280;23738;50.422;18.758;2023-02-24T03:52:07;97655.02;;;7.15;78.33
37904;BME280;23738;50.422;18.758;2023-02-24T03:54:55;97650.77;;;7.15;78.25
37904;BME280;23738;50.422;18.758;2023-02-24T03:57:35;97642.59;;;7.16;78.53
37904;BME280;23738;50.422;18.758;2023-02-24T04:00:24;97640.64;;;7.15;78.33
37904;BME280;23738;50.422;18.758;2023-02-24T04:03:04;97638.96;;;7.13;78.37
37904;BME280;23738;50.422;18.758;2023-02-24T04:05:35;97636.02;;;7.11;78.73
37904;BME280;23738;50.422;18.758;2023-02-24T04:08:08;97635.77;;;7.08;78.64
37904;BME280;23738;50.422;18.758;2023-02-24T04:10:40;97629.75;;;7.07;78.51
37904;BME280;23738;50.422;18.758;2023-02-24T04:13:24;97626.83;;;7.07;78.68
37904;BME280;23738;50.422;18.758;2023-02-24T04:15:59;97623.70;;;7.08;78.85
37904;BME280;23738;50.422;18.758;2023-02-24T04:18:30;97614.28;;;7.08;78.94
37904;BME280;23738;50.422;18.758;2023-02-24T04:21:00;97615.83;;;7.09;78.76
37904;BME280;23738;50.422;18.758;2023-02-24T04:23:31;97614.67;;;7.11;79.36
37904;BME280;23738;50.422;18.758;2023-02-24T04:25:59;97612.91;;;7.09;79.46
37904;BME280;23738;50.422;18.758;2023-02-24T04:28:28;97609.38;;;7.06;79.20
37904;BME280;23738;50.422;18.758;2023-02-24T04:30:59;97606.23;;;7.09;79.54
37904;BME280;23738;50.422;18.758;2023-02-24T04:33:31;97604.90;;;7.12;79.57
37904;BME280;23738;50.422;18.758;2023-02-24T04:35:59;97602.09;;;7.14;79.59
37904;BME280;23738;50.422;18.758;2023-02-24T04:38:26;97597.99;;;7.13;79.68
37904;BME280;23738;50.422;18.758;2023-02-24T04:40:53;97595.69;;;7.12;79.91
37904;BME280;23738;50.422;18.758;2023-02-24T04:43:21;97589.06;;;7.10;79.95
37904;BME280;23738;50.422;18.758;2023-02-24T04:45:48;97586.00;;;7.08;79.80
37904;BME280;23738;50.422;18.758;2023-02-24T04:48:17;97580.09;;;7.07;79.93
37904;BME280;23738;50.422;18.758;2023-02-24T04:50:46;97575.52;;;7.07;79.77
37904;BME280;23738;50.422;18.758;2023-02-24T04:53:20;97569.39;;;7.08;80.03
37904;BME280;23738;50.422;18.758;2023-02-24T04:55:52;97564.83;;;7.11;80.62
37904;BME280;23738;50.422;18.758;2023-02-24T04:58:24;97564.78;;;7.11;80.20
37904;BME280;23738;50.422;18.758;2023-02-24T05:00:54;97554.71;;;7.11;80.42
37904;BME280;23738;50.422;18.758;2023-02-24T05:03:22;97556.73;;;7.07;80.34
37904;BME280;23738;50.422;18.758;2023-02-24T05:05:55;97552.97;;;7.04;80.43
37904;BME280;23738;50.422;18.758;2023-02-24T05:08:24;97546.02;;;7.03;80.57
37904;BME280;23738;50.422;18.758;2023-02-24T05:10:53;97540.36;;;7.04;80.90
37904;BME280;23738;50.422;18.758;2023-02-24T05:13:24;97537.38;;;7.05;80.74
37904;BME280;23738;50.422;18.758;2023-02-24T05:15:54;97539.52;;;7.04;80.75
37904;BME280;23738;50.422;18.758;2023-02-24T05:18:22;97542.52;;;7.02;80.70
37904;BME280;23738;50.422;18.758;2023-02-24T05:20:51;97536.54;;;7.00;81.12
37904;BME280;23738;50.422;18.758;2023-02-24T05:23:38;97538.50;;;6.97;81.14
37904;BME280;23738;50.422;18.758;2023-02-24T05:26:08;97534.86;;;6.95;80.81
37904;BME280;23738;50.422;18.758;2023-02-24T05:28:36;97529.22;;;6.98;81.08
37904;BME280;23738;50.422;18.758;2023-02-24T05:31:06;97526.85;;;7.01;81.33
37904;BME280;23738;50.422;18.758;2023-02-24T05:33:34;97528.48;;;7.02;81.54
37904;BME280;23738;50.422;18.758;2023-02-24T05:36:05;97526.59;;;7.05;81.53
37904;BME280;23738;50.422;18.758;2023-02-24T05:38:34;97528.89;;;7.04;81.52
37904;BME280;23738;50.422;18.758;2023-02-24T05:41:08;97530.11;;;7.01;81.55
37904;BME280;23738;50.422;18.758;2023-02-24T05:43:42;97527.77;;;6.98;81.35
37904;BME280;23738;50.422;18.758;2023-02-24T05:46:14;97530.06;;;6.95;81.47
37904;BME280;23738;50.422;18.758;2023-02-24T05:48:41;97529.61;;;6.97;81.48
37904;BME280;23738;50.422;18.758;2023-02-24T05:51:10;97529.63;;;6.98;81.91
37904;BME280;23738;50.422;18.758;2023-02-24T05:53:38;97527.00;;;6.98;81.64
37904;BME280;23738;50.422;18.758;2023-02-24T05:56:07;97529.88;;;7.00;81.75
37904;BME280;23738;50.422;18.758;2023-02-24T05:58:35;97523.41;;;7.01;81.97
37904;BME280;23738;50.422;18.758;2023-02-24T06:01:10;97520.52;;;6.98;81.89
37904;BME280;23738;50.422;18.758;2023-02-24T06:03:42;97519.80;;;6.96;81.87
37904;BME280;23738;50.422;18.758;2023-02-24T06:06:13;97523.23;;;6.95;81.87
37904;BME280;23738;50.422;18.758;2023-02-24T06:08:41;97520.52;;;6.95;82.08
37904;BME280;23738;50.422;18.758;2023-02-24T06:11:09;97521.66;;;6.97;82.15
37904;BME280;23738;50.422;18.758;2023-02-24T06:13:37;97523.81;;;7.00;82.01
37904;BME280;23738;50.422;18.758;2023-02-24T06:16:06;97521.40;;;7.01;82.22
37904;BME280;23738;50.422;18.758;2023-02-24T06:18:34;97520.79;;;7.00;82.45
37904;BME280;23738;50.422;18.758;2023-02-24T06:21:02;97515.13;;;6.99;82.60
37904;BME280;23738;50.422;18.758;2023-02-24T06:23:30;97514.85;;;7.00;82.32
37904;BME280;23738;50.422;18.758;2023-02-24T06:26:01;97507.42;;;7.02;82.39
37904;BME280;23738;50.422;18.758;2023-02-24T06:28:30;97508.94;;;7.03;82.59
37904;BME280;23738;50.422;18.758;2023-02-24T06:31:02;97505.14;;;7.04;82.67
37904;BME280;23738;50.422;18.758;2023-02-24T06:33:32;97506.44;;;7.04;82.78
37904;BME280;23738;50.422;18.758;2023-02-24T06:36:00;97507.50;;;7.01;82.96
37904;BME280;23738;50.422;18.758;2023-02-24T06:38:29;97507.48;;;6.97;82.84
37904;BME280;23738;50.422;18.758;2023-02-24T06:40:57;97501.79;;;6.95;82.68
37904;BME280;23738;50.422;18.758;2023-02-24T06:43:25;97505.61;;;6.95;82.94
37904;BME280;23738;50.422;18.758;2023-02-24T06:45:52;97503.08;;;6.96;83.32
37904;BME280;23738;50.422;18.758;2023-02-24T06:48:20;97502.89;;;6.99;83.31
37904;BME280;23738;50.422;18.758;2023-02-24T06:50:48;97506.02;;;7.02;83.31
37904;BME280;23738;50.422;18.758;2023-02-24T06:53:17;97506.29;;;7.01;83.35
37904;BME280;23738;50.422;18.758;2023-02-24T06:55:45;97507.52;;;6.97;83.59
37904;BME280;23738;50.422;18.758;2023-02-24T06:58:16;97505.31;;;6.94;83.32
37904;BME280;23738;50.422;18.758;2023-02-24T07:00:45;97507.58;;;6.94;83.25
37904;BME280;23738;50.422;18.758;2023-02-24T07:03:24;97505.41;;;6.96;83.56
37904;BME280;23738;50.422;18.758;2023-02-24T07:06:06;97507.31;;;6.96;83.80
37904;BME280;23738;50.422;18.758;2023-02-24T07:08:50;97503.32;;;6.88;83.93
37904;BME280;23738;50.422;18.758;2023-02-24T07:11:19;97504.29;;;6.84;83.89
37904;BME280;23738;50.422;18.758;2023-02-24T07:13:47;97497.77;;;6.82;83.98
37904;BME280;23738;50.422;18.758;2023-02-24T07:16:16;97498.58;;;6.79;83.95
37904;BME280;23738;50.422;18.758;2023-02-24T07:18:44;97493.41;;;6.80;84.20
37904;BME280;23738;50.422;18.758;2023-02-24T07:21:15;97495.16;;;6.83;84.13
37904;BME280;23738;50.422;18.758;2023-02-24T07:23:45;97493.23;;;6.84;84.10
37904;BME280;23738;50.422;18.758;2023-02-24T07:26:16;97490.36;;;6.85;84.38
37904;BME280;23738;50.422;18.758;2023-02-24T07:28:45;97490.80;;;6.85;84.52
37904;BME280;23738;50.422;18.758;2023-02-24T07:31:15;97485.14;;;6.79;84.51
37904;BME280;23738;50.422;18.758;2023-02-24T07:33:43;97485.11;;;6.84;84.62
37904;BME280;23738;50.422;18.758;2023-02-24T07:36:12;97481.05;;;6.86;84.63
37904;BME280;23738;50.422;18.758;2023-02-24T07:38:41;97479.77;;;6.89;84.72
37904;BME280;23738;50.422;18.758;2023-02-24T07:41:11;97474.89;;;6.90;85.06
37904;BME280;23738;50.422;18.758;2023-02-24T07:43:40;97473.21;;;6.88;84.89
37904;BME280;23738;50.422;18.758;2023-02-24T07:46:11;97469.64;;;6.87;84.93
37904;BME280;23738;50.422;18.758;2023-02-24T07:48:40;97467.59;;;6.85;85.39
37904;BME280;23738;50.422;18.758;2023-02-24T07:51:08;97470.27;;;6.83;85.30
37904;BME280;23738;50.422;18.758;2023-02-24T07:53:36;97467.05;;;6.85;85.74
37904;BME280;23738;50.422;18.758;2023-02-24T07:56:08;97464.29;;;6.87;85.48
37904;BME280;23738;50.422;18.758;2023-02-24T07:58:39;97459.60;;;6.87;85.52
37904;BME280;23738;50.422;18.758;2023-02-24T08:01:08;97459.77;;;6.88;85.36
37904;BME280;23738;50.422;18.758;2023-02-24T08:03:48;97456.54;;;6.87;85.87
37904;BME280;23738;50.422;18.758;2023-02-24T08:06:17;97457.91;;;6.88;86.00
37904;BME280;23738;50.422;18.758;2023-02-24T08:08:54;97455.81;;;6.89;86.00
37904;BME280;23738;50.422;18.758;2023-02-24T08:11:26;97451.10;;;6.90;86.38
37904;BME280;23738;50.422;18.758;2023-02-24T08:13:53;97456.23;;;6.91;86.09
37904;BME280;23738;50.422;18.758;2023-02-24T08:16:23;97452.63;;;6.94;86.25
37904;BME280;23738;50.422;18.758;2023-02-24T08:18:50;97448.19;;;6.98;86.42
37904;BME280;23738;50.422;18.758;2023-02-24T08:21:23;97449.89;;;7.00;86.51
37904;BME280;23738;50.422;18.758;2023-02-24T08:23:52;97448.23;;;6.99;86.41
37904;BME280;23738;50.422;18.758;2023-02-24T08:26:20;97449.27;;;6.99;86.52
37904;BME280;23738;50.422;18.758;2023-02-24T08:28:56;97447.05;;;6.99;86.62
37904;BME280;23738;50.422;18.758;2023-02-24T08:31:23;97445.05;;;7.01;86.37
37904;BME280;23738;50.422;18.758;2023-02-24T08:33:50;97443.37;;;7.04;86.64
37904;BME280;23738;50.422;18.758;2023-02-24T08:36:21;97438.77;;;7.06;86.80
37904;BME280;23738;50.422;18.758;2023-02-24T08:38:52;97436.36;;;7.09;86.81
37904;BME280;23738;50.422;18.758;2023-02-24T08:41:20;97437.08;;;7.09;86.88
37904;BME280;23738;50.422;18.758;2023-02-24T08:43:54;97433.44;;;7.09;86.84
37904;BME280;23738;50.422;18.758;2023-02-24T08:46:23;97433.12;;;7.09;86.83
37904;BME280;23738;50.422;18.758;2023-02-24T08:48:53;97422.24;;;7.11;87.17
37904;BME280;23738;50.422;18.758;2023-02-24T08:51:23;97412.78;;;7.18;87.29
37904;BME280;23738;50.422;18.758;2023-02-24T08:53:56;97417.68;;;7.31;87.55
37904;BME280;23738;50.422;18.758;2023-02-24T08:56:26;97416.48;;;7.38;87.45
37904;BME280;23738;50.422;18.758;2023-02-24T08:58:55;97414.81;;;7.45;87.45
37904;BME280;23738;50.422;18.758;2023-02-24T09:01:26;97412.88;;;7.46;87.46
37904;BME280;23738;50.422;18.758;2023-02-24T09:04:02;97411.90;;;7.45;87.46
37904;BME280;23738;50.422;18.758;2023-02-24T09:06:38;97408.83;;;7.47;87.50
37904;BME280;23738;50.422;18.758;2023-02-24T09:09:06;97407.19;;;7.50;87.61
37904;BME280;23738;50.422;18.758;2023-02-24T09:11:43;97408.77;;;7.51;87.54
37904;BME280;23738;50.422;18.758;2023-02-24T09:14:14;97405.09;;;7.53;87.69
37904;BME280;23738;50.422;18.758;2023-02-24T09:16:44;97398.88;;;7.50;87.79
37904;BME280;23738;50.422;18.758;2023-02-24T09:19:29;97394.80;;;7.47;87.78
37904;BME280;23738;50.422;18.758;2023-02-24T09:22:16;97397.67;;;7.47;87.77
37904;BME280;23738;50.422;18.758;2023-02-24T09:25:01;97396.75;;;7.48;88.01
37904;BME280;23738;50.422;18.758;2023-02-24T09:27:44;97387.88;;;7.48;88.14
37904;BME280;23738;50.422;18.758;2023-02-24T09:30:14;97393.45;;;7.52;88.14
37904;BME280;23738;50.422;18.758;2023-02-24T09:33:05;97389.06;;;7.58;88.20
37904;BME280;23738;50.422;18.758;2023-02-24T09:35:33;97387.42;;;7.63;88.10
37904;BME280;23738;50.422;18.758;2023-02-24T09:38:07;97379.19;;;7.63;88.32
37904;BME280;23738;50.422;18.758;2023-02-24T09:40:34;97375.30;;;7.64;88.19
37904;BME280;23738;50.422;18.758;2023-02-24T09:43:09;97369.73;;;7.67;88.44
37904;BME280;23738;50.422;18.758;2023-02-24T09:45:47;97375.66;;;7.65;88.11
37904;BME280;23738;50.422;18.758;2023-02-24T09:48:25;97369.27;;;7.66;88.34
37904;BME280;23738;50.422;18.758;2023-02-24T09:50:55;97366.41;;;7.69;88.51
37904;BME280;23738;50.422;18.758;2023-02-24T09:53:33;97361.15;;;7.67;88.46
37904;BME280;23738;50.422;18.758;2023-02-24T09:56:23;97365.40;;;7.64;88.46
37904;BME280;23738;50.422;18.758;2023-02-24T09:58:59;97364.15;;;7.61;88.55
37904;BME280;23738;50.422;18.758;2023-02-24T10:01:49;97353.10;;;7.62;88.55
37904;BME280;23738;50.422;18.758;2023-02-24T10:04:41;97353.42;;;7.72;88.97
37904;BME280;23738;50.422;18.758;2023-02-24T10:07:19;97351.72;;;7.82;88.89
37904;BME280;23738;50.422;18.758;2023-02-24T10:09:53;97355.70;;;7.84;88.68
37904;BME280;23738;50.422;18.758;2023-02-24T10:12:37;97350.13;;;7.78;88.63
37904;BME280;23738;50.422;18.758;2023-02-24T10:15:12;97343.16;;;7.80;88.79
37904;BME280;23738;50.422;18.758;2023-02-24T10:18:12;97341.86;;;7.87;89.02
37904;BME280;23738;50.422;18.758;2023-02-24T10:20:55;97338.85;;;7.99;89.22
37904;BME280;23738;50.422;18.758;2023-02-24T10:23:30;97334.62;;;8.08;89.27
37904;BME280;23738;50.422;18.758;2023-02-24T10:26:06;97335.73;;;8.14;89.32
37904;BME280;23738;50.422;18.758;2023-02-24T10:28:52;97329.78;;;8.16;89.18
37904;BME280;23738;50.422;18.758;2023-02-24T10:31:28;97324.25;;;8.14;89.28
37904;BME280;23738;50.422;18.758;2023-02-24T10:34:02;97318.29;;;8.15;89.29
37904;BME280;23738;50.422;18.758;2023-02-24T10:36:32;97314.16;;;8.15;89.49
37904;BME280;23738;50.422;18.758;2023-02-24T10:39:08;97307.20;;;8.13;89.41
37904;BME280;23738;50.422;18.758;2023-02-24T10:41:43;97295.81;;;8.12;89.83
37904;BME280;23738;50.422;18.758;2023-02-24T10:44:18;97284.94;;;8.15;89.54
37904;BME280;23738;50.422;18.758;2023-02-24T10:46:45;97275.71;;;8.21;89.61
37904;BME280;23738;50.422;18.758;2023-02-24T10:49:13;97281.14;;;8.34;90.17
37904;BME280;23738;50.422;18.758;2023-02-24T10:51:46;97276.88;;;8.40;89.90
37904;BME280;23738;50.422;18.758;2023-02-24T10:54:21;97266.28;;;8.40;89.78
37904;BME280;23738;50.422;18.758;2023-02-24T10:57:04;97263.21;;;8.42;90.03
37904;BME280;23738;50.422;18.758;2023-02-24T10:59:52;97254.61;;;8.50;90.18
37904;BME280;23738;50.422;18.758;2023-02-24T11:02:43;97255.45;;;8.52;90.11
37904;BME280;23738;50.422;18.758;2023-02-24T11:05:23;97259.29;;;8.48;89.99
37904;BME280;23738;50.422;18.758;2023-02-24T11:08:12;97256.65;;;8.39;89.79
37904;BME280;23738;50.422;18.758;2023-02-24T11:11:07;97251.80;;;8.31;90.00
37904;BME280;23738;50.422;18.758;2023-02-24T11:13:48;97250.94;;;8.23;89.92
37904;BME280;23738;50.422;18.758;2023-02-24T11:16:43;97250.86;;;8.18;90.00
37904;BME280;23738;50.422;18.758;2023-02-24T11:19:30;97243.16;;;8.20;90.06
37904;BME280;23738;50.422;18.758;2023-02-24T11:21:59;97237.85;;;8.23;90.25
37904;BME280;23738;50.422;18.758;2023-02-24T11:24:28;97230.86;;;8.28;90.30
37904;BME280;23738;50.422;18.758;2023-02-24T11:26:57;97217.36;;;8.32;90.36
37904;BME280;23738;50.422;18.758;2023-02-24T11:29:39;97210.25;;;8.36;90.50
37904;BME280;23738;50.422;18.758;2023-02-24T11:32:25;97203.92;;;8.41;90.45
37904;BME280;23738;50.422;18.758;2023-02-24T11:35:01;97201.14;;;8.48;90.39
37904;BME280;23738;50.422;18.758;2023-02-24T11:37:37;97195.12;;;8.52;90.35
37904;BME280;23738;50.422;18.758;2023-02-24T11:40:14;97186.93;;;8.56;90.45
37904;BME280;23738;50.422;18.758;2023-02-24T11:42:47;97185.07;;;8.61;90.48
37904;BME280;23738;50.422;18.758;2023-02-24T11:45:27;97180.15;;;8.64;90.44
37904;BME280;23738;50.422;18.758;2023-02-24T11:48:00;97176.90;;;8.73;90.84
37904;BME280;23738;50.422;18.758;2023-02-24T11:50:35;97173.67;;;8.86;91.03
37904;BME280;23738;50.422;18.758;2023-02-24T11:53:08;97173.96;;;8.95;90.79
37904;BME280;23738;50.422;18.758;2023-02-24T11:55:41;97167.46;;;8.90;90.70
37904;BME280;23738;50.422;18.758;2023-02-24T11:58:16;97170.20;;;8.92;90.74
37904;BME280;23738;50.422;18.758;2023-02-24T12:00:51;97168.08;;;8.89;90.70
37904;BME280;23738;50.422;18.758;2023-02-24T12:03:29;97164.98;;;8.84;90.79
37904;BME280;23738;50.422;18.758;2023-02-24T12:06:08;97163.20;;;8.79;90.81
37904;BME280;23738;50.422;18.758;2023-02-24T12:08:40;97158.63;;;8.79;91.13
37904;BME280;23738;50.422;18.758;2023-02-24T12:11:13;97152.73;;;8.76;90.93
37904;BME280;23738;50.422;18.758;2023-02-24T12:13:49;97152.53;;;8.75;90.85
37904;BME280;23738;50.422;18.758;2023-02-24T12:16:21;97149.90;;;8.78;90.89
37904;BME280;23738;50.422;18.758;2023-02-24T12:18:56;97147.33;;;8.80;90.95
37904;BME280;23738;50.422;18.758;2023-02-24T12:21:30;97142.39;;;8.84;91.11
37904;BME280;23738;50.422;18.758;2023-02-24T12:24:00;97135.55;;;8.86;91.17
37904;BME280;23738;50.422;18.758;2023-02-24T12:26:35;97127.02;;;8.90;91.12
37904;BME280;23738;50.422;18.758;2023-02-24T12:29:34;97119.16;;;8.96;91.20
37904;BME280;23738;50.422;18.758;2023-02-24T12:32:16;97113.27;;;9.01;91.05
37904;BME280;23738;50.422;18.758;2023-02-24T12:34:55;97112.59;;;9.06;91.07
37904;BME280;23738;50.422;18.758;2023-02-24T12:37:43;97106.16;;;9.14;91.18
37904;BME280;23738;50.422;18.758;2023-02-24T12:40:23;97095.63;;;9.21;91.12
37904;BME280;23738;50.422;18.758;2023-02-24T12:42:58;97095.55;;;9.26;91.06
37904;BME280;23738;50.422;18.758;2023-02-24T12:45:36;97093.19;;;9.22;90.95
37904;BME280;23738;50.422;18.758;2023-02-24T12:48:13;97087.11;;;9.28;91.30
37904;BME280;23738;50.422;18.758;2023-02-24T12:50:50;97085.79;;;9.32;91.09
37904;BME280;23738;50.422;18.758;2023-02-24T12:53:30;97080.00;;;9.34;90.96
37904;BME280;23738;50.422;18.758;2023-02-24T12:56:08;97078.63;;;9.34;90.75
37904;BME280;23738;50.422;18.758;2023-02-24T12:58:42;97078.63;;;9.34;90.67
37904;BME280;23738;50.422;18.758;2023-02-24T13:01:17;97077.45;;;9.31;90.47
37904;BME280;23738;50.422;18.758;2023-02-24T13:03:58;97071.98;;;9.28;90.61
37904;BME280;23738;50.422;18.758;2023-02-24T13:06:39;97065.48;;;9.29;90.72
37904;BME280;23738;50.422;18.758;2023-02-24T13:09:16;97059.98;;;9.28;90.57
37904;BME280;23738;50.422;18.758;2023-02-24T13:11:53;97054.06;;;9.25;90.39
37904;BME280;23738;50.422;18.758;2023-02-24T13:14:26;97047.19;;;9.25;90.64
37904;BME280;23738;50.422;18.758;2023-02-24T13:17:15;97043.21;;;9.30;90.76
37904;BME280;23738;50.422;18.758;2023-02-24T13:19:44;97039.02;;;9.38;90.92
37904;BME280;23738;50.422;18.758;2023-02-24T13:22:22;97039.95;;;9.39;90.55
37904;BME280;23738;50.422;18.758;2023-02-24T13:25:00;97031.22;;;9.39;90.58
37904;BME280;23738;50.422;18.758;2023-02-24T13:27:32;97029.20;;;9.39;90.42
37904;BME280;23738;50.422;18.758;2023-02-24T13:30:25;97017.73;;;9.31;89.97
37904;BME280;23738;50.422;18.758;2023-02-24T13:33:05;97011.18;;;9.37;90.60
37904;BME280;23738;50.422;18.758;2023-02-24T13:35:35;97014.75;;;9.37;90.19
37904;BME280;23738;50.422;18.758;2023-02-24T13:38:20;97008.88;;;9.27;89.76